Yorktown, Virginia
Current Conditions -  °F | °C
As of 10:54 AM on Sunday 21 Dec 2014 (Local Time) from KPHF Reporting Station
Overcast Overcast  
Wind Chill: 40°   Ceiling: 7000
Heat Index: 44°   Visibility: 10mi
Dew Point: 29°   Wind: 8mph
Humidity: 55%   Direction: 20°NNE
Pressure: 30.36"   Gusts: NA
Location:  37.24°N, 76.51°W
Report Text: KPHF 211554Z 02007KT 10SM OVC070 07/M02 A3036 RMK AO2 SLP281 T00671017 $
Loading
Personal Weather Stations






























Interactive Weather Map New forecast layout! Learn more

10-Day Weather Forecast

Advertisements
Track Severe Weather on mobile